Time;durP1;ratioP1;P1;durP2;ratioP2;P2;SDS_P1;SDS_P2;PMS_P1;PMS_P2;Temp;Humidity;BMP_temperature;BMP_pressure;BME280_temperature;BME280_humidity;BME280_pressure;Samples;Min_cycle;Max_cycle;Signal;HPM_P1;HPM_P2
2021/07/06 00:01:52;;;;;;;1.27;0.60;;;23.70;58.20;;;;;;5024395;28;20958;-65
2021/07/06 00:04:18;;;;;;;0.90;0.52;;;23.60;58.10;;;;;;5024105;28;20441;-63
2021/07/06 00:06:44;;;;;;;0.80;0.52;;;23.60;58.10;;;;;;5023792;28;20438;-63
2021/07/06 00:09:10;;;;;;;0.70;0.50;;;23.60;58.10;;;;;;5024615;28;20441;-63
2021/07/06 00:11:36;;;;;;;0.90;0.50;;;23.60;58.80;;;;;;5024250;28;20387;-63
2021/07/06 00:14:02;;;;;;;1.08;0.50;;;23.60;58.10;;;;;;5024548;28;20387;-63
2021/07/06 00:16:28;;;;;;;1.10;0.50;;;23.60;58.10;;;;;;5023458;28;20402;-63
2021/07/06 00:18:54;;;;;;;1.20;0.50;;;23.60;58.10;;;;;;5023840;28;20441;-64
2021/07/06 00:21:20;;;;;;;0.70;0.50;;;23.60;58.10;;;;;;5024335;28;20862;-63
2021/07/06 00:23:46;;;;;;;1.40;0.50;;;23.60;58.10;;;;;;5023952;28;20391;-63
2021/07/06 00:26:12;;;;;;;1.00;0.50;;;23.60;58.10;;;;;;5023845;28;20415;-63
2021/07/06 00:28:38;;;;;;;1.17;0.60;;;23.60;58.10;;;;;;5023623;28;20482;-63
2021/07/06 00:31:04;;;;;;;0.85;0.47;;;23.60;58.60;;;;;;5023410;28;20406;-63
2021/07/06 00:33:30;;;;;;;0.90;0.57;;;23.60;58.00;;;;;;5023528;28;20751;-63
2021/07/06 00:36:01;;;;;;;0.95;0.40;;;23.60;58.00;;;;;;5023778;28;20399;-64
2021/07/06 00:38:29;;;;;;;1.40;0.43;;;23.60;58.00;;;;;;5023569;28;20463;-62
2021/07/06 00:40:57;;;;;;;1.00;0.57;;;23.60;58.00;;;;;;5023441;28;20393;-63
2021/07/06 00:43:23;;;;;;;0.73;0.40;;;23.60;58.00;;;;;;5023738;28;20391;-63
2021/07/06 00:45:50;;;;;;;0.70;0.43;;;23.60;58.00;;;;;;5022921;28;20426;-63
2021/07/06 00:48:16;;;;;;;0.80;0.40;;;23.50;57.90;;;;;;5023951;28;20739;-62
2021/07/06 00:50:42;;;;;;;12.25;0.85;;;23.60;58.00;;;;;;5023192;28;20452;-63
2021/07/06 00:53:08;;;;;;;1.33;0.60;;;23.60;58.00;;;;;;5023528;28;20395;-63
2021/07/06 00:55:34;;;;;;;0.80;0.52;;;23.50;57.90;;;;;;5023579;28;20441;-63
2021/07/06 00:58:01;;;;;;;0.70;0.40;;;23.50;58.00;;;;;;5023428;28;20437;-63
2021/07/06 01:00:27;;;;;;;1.40;0.73;;;23.60;58.00;;;;;;5022894;28;20402;-64
2021/07/06 01:02:53;;;;;;;1.00;0.50;;;23.50;57.90;;;;;;5023225;28;20390;-64
2021/07/06 01:05:24;;;;;;;5.30;4.90;;;23.50;57.90;;;;;;5022833;28;20538;-63
2021/07/06 01:07:51;;;;;;;0.50;0.40;;;23.60;58.00;;;;;;5023694;28;20395;-63
2021/07/06 01:10:17;;;;;;;3.03;0.70;;;23.50;57.90;;;;;;5023434;28;20466;-63
2021/07/06 01:12:46;;;;;;;0.73;0.50;;;23.50;58.00;;;;;;5022792;28;20379;-65
2021/07/06 01:15:18;;;;;;;0.73;0.50;;;23.50;57.90;;;;;;5022661;28;20387;-63
2021/07/06 01:17:45;;;;;;;1.20;0.50;;;23.50;57.90;;;;;;5023195;28;20391;-63
2021/07/06 01:20:15;;;;;;;0.88;0.40;;;23.50;57.90;;;;;;5022809;28;20390;-63
2021/07/06 01:22:42;;;;;;;0.57;0.40;;;23.50;57.80;;;;;;5021821;28;20823;-63
2021/07/06 01:25:10;;;;;;;0.73;0.50;;;23.50;57.90;;;;;;5023053;28;20506;-64
2021/07/06 01:27:37;;;;;;;0.68;0.40;;;23.50;57.90;;;;;;5022822;28;20394;-63
2021/07/06 01:30:09;;;;;;;0.70;0.50;;;23.50;57.90;;;;;;5022338;28;20493;-63
2021/07/06 01:32:38;;;;;;;0.68;0.50;;;23.50;57.80;;;;;;5022435;28;20387;-63
2021/07/06 01:35:04;;;;;;;0.80;0.50;;;23.50;57.90;;;;;;5022807;28;20399;-63
2021/07/06 01:37:30;;;;;;;0.60;0.50;;;23.50;57.80;;;;;;5022763;28;20399;-62
2021/07/06 01:39:55;;;;;;;1.20;0.55;;;23.50;57.80;;;;;;5023075;28;20483;-62
2021/07/06 01:42:22;;;;;;;0.90;0.50;;;23.50;57.80;;;;;;5022290;28;20398;-63
2021/07/06 01:45:15;;;;;;;2.08;0.50;;;23.50;57.80;;;;;;5022002;28;20952;-64
2021/07/06 01:47:43;;;;;;;1.17;0.60;;;23.50;57.80;;;;;;5022697;28;20411;-63
2021/07/06 01:50:11;;;;;;;0.80;0.60;;;23.50;57.80;;;;;;5022553;28;20836;-65
2021/07/06 01:52:59;;;;;;;0.80;0.50;;;23.50;57.80;;;;;;5022350;28;20423;-63
2021/07/06 01:55:27;;;;;;;0.85;0.52;;;23.40;57.80;;;;;;5022771;28;20422;-63
2021/07/06 01:57:54;;;;;;;1.10;0.60;;;23.40;57.70;;;;;;5022515;28;20395;-63
2021/07/06 02:00:23;;;;;;;0.70;0.50;;;23.40;57.80;;;;;;5021964;28;20422;-63
2021/07/06 02:02:49;;;;;;;0.85;0.50;;;23.40;57.80;;;;;;5021979;28;20856;-64
2021/07/06 02:05:18;;;;;;;0.85;0.40;;;23.40;57.80;;;;;;5020625;28;20961;-63
2021/07/06 02:07:46;;;;;;;1.60;0.80;;;23.40;57.70;;;;;;5022778;28;20926;-63
2021/07/06 02:10:14;;;;;;;0.70;0.45;;;23.40;57.80;;;;;;5022700;28;20391;-63
2021/07/06 02:12:41;;;;;;;1.30;0.60;;;23.40;57.70;;;;;;5022080;28;20394;-64
2021/07/06 02:15:10;;;;;;;0.70;0.50;;;23.40;57.80;;;;;;5023502;28;20550;-64
2021/07/06 02:17:36;;;;;;;0.77;0.50;;;23.40;57.80;;;;;;5026563;28;20383;-63
2021/07/06 02:20:07;;;;;;;0.77;0.50;;;23.40;57.70;;;;;;5026078;28;20395;-63
2021/07/06 02:22:34;;;;;;;1.00;0.50;;;23.40;57.70;;;;;;5025589;28;20485;-63
2021/07/06 02:24:59;;;;;;;1.15;0.40;;;23.40;57.70;;;;;;5026302;28;20402;-63
2021/07/06 02:27:25;;;;;;;0.70;0.40;;;23.40;57.80;;;;;;5026338;28;20403;-63
2021/07/06 02:29:51;;;;;;;0.77;0.50;;;23.40;57.70;;;;;;5025653;28;20402;-63
2021/07/06 02:32:17;;;;;;;1.10;0.50;;;23.40;57.70;;;;;;5026139;28;20450;-63
2021/07/06 02:34:43;;;;;;;1.00;0.43;;;23.40;57.70;;;;;;5024348;28;20783;-63
2021/07/06 02:37:09;;;;;;;0.90;0.50;;;23.40;57.70;;;;;;5026163;28;20395;-63
2021/07/06 02:39:35;;;;;;;0.80;0.50;;;23.40;57.70;;;;;;5026031;28;20387;-64
2021/07/06 02:42:00;;;;;;;0.65;0.43;;;23.40;57.70;;;;;;5026239;28;20391;-63
2021/07/06 02:44:26;;;;;;;0.80;0.50;;;23.40;57.70;;;;;;5025885;28;20391;-63
2021/07/06 02:46:52;;;;;;;0.88;0.50;;;23.40;57.70;;;;;;5025454;28;20429;-65
2021/07/06 02:49:18;;;;;;;0.70;0.50;;;23.40;57.70;;;;;;5025720;28;20391;-63
2021/07/06 02:51:44;;;;;;;0.60;0.40;;;23.30;57.70;;;;;;5025706;28;20391;-63
2021/07/06 02:54:10;;;;;;;0.75;0.40;;;23.30;57.60;;;;;;5025784;28;20395;-63
2021/07/06 02:56:36;;;;;;;0.68;0.40;;;23.30;57.60;;;;;;5025046;28;20391;-63
2021/07/06 02:59:02;;;;;;;0.70;0.47;;;23.30;57.60;;;;;;5025828;28;20386;-63
2021/07/06 03:01:29;;;;;;;0.88;0.50;;;23.40;57.70;;;;;;5025184;28;20387;-62
2021/07/06 03:03:55;;;;;;;1.00;0.60;;;23.30;57.60;;;;;;5025317;28;20478;-63
2021/07/06 03:06:23;;;;;;;0.70;0.40;;;23.40;57.70;;;;;;5025386;28;20437;-63
2021/07/06 03:08:52;;;;;;;1.80;0.60;;;23.30;57.60;;;;;;5024934;28;20394;-65
2021/07/06 03:11:18;;;;;;;2.83;0.60;;;23.30;57.70;;;;;;5025296;28;21059;-63
2021/07/06 03:13:45;;;;;;;1.63;0.50;;;23.30;58.20;;;;;;5025783;28;20395;-63
2021/07/06 03:16:11;;;;;;;1.40;0.57;;;23.40;58.10;;;;;;5024394;28;20402;-63
2021/07/06 03:18:37;;;;;;;1.20;0.60;;;23.40;58.60;;;;;;5024354;28;20395;-64
2021/07/06 03:21:03;;;;;;;3.50;0.60;;;23.40;57.90;;;;;;5024796;28;20411;-63
2021/07/06 03:23:29;;;;;;;1.02;0.60;;;23.40;57.40;;;;;;5024743;28;20425;-63
2021/07/06 03:25:55;;;;;;;1.90;0.70;;;23.30;58.50;;;;;;5024560;28;20419;-63
2021/07/06 03:28:21;;;;;;;1.48;0.60;;;23.40;58.30;;;;;;5024433;28;20448;-64
2021/07/06 03:30:47;;;;;;;2.20;0.70;;;23.40;58.20;;;;;;5024045;28;20399;-64
2021/07/06 03:33:13;;;;;;;5.57;0.70;;;23.40;58.20;;;;;;5025115;28;20406;-63
2021/07/06 03:35:39;;;;;;;1.77;0.60;;;23.40;58.40;;;;;;5025109;28;20395;-63
2021/07/06 03:38:05;;;;;;;3.03;0.90;;;23.40;58.30;;;;;;5025707;28;20481;-64
2021/07/06 03:40:33;;;;;;;1.50;0.70;;;23.40;59.20;;;;;;5024044;28;20399;-63
2021/07/06 03:42:59;;;;;;;7.65;0.88;;;23.50;58.40;;;;;;5023779;28;20431;-63
2021/07/06 03:45:26;;;;;;;2.10;0.60;;;23.50;59.60;;;;;;5024731;28;20569;-63
2021/07/06 03:47:53;;;;;;;1.70;0.60;;;23.50;59.50;;;;;;5024434;28;20883;-65
2021/07/06 03:50:22;;;;;;;2.35;0.60;;;23.50;58.70;;;;;;5024030;28;20419;-63
2021/07/06 03:52:49;;;;;;;1.40;0.50;;;23.50;58.60;;;;;;5023972;28;21265;-63
2021/07/06 03:55:16;;;;;;;2.20;0.50;;;23.50;58.40;;;;;;5024887;28;20446;-63
2021/07/06 03:57:43;;;;;;;1.20;0.60;;;23.40;58.30;;;;;;5024172;28;20482;-63
2021/07/06 04:00:12;;;;;;;2.72;0.60;;;23.40;58.20;;;;;;5024145;28;20399;-64
2021/07/06 04:02:39;;;;;;;3.00;0.70;;;23.40;58.30;;;;;;5023893;28;20391;-64
2021/07/06 04:05:06;;;;;;;2.13;0.57;;;23.40;58.20;;;;;;5024383;28;20402;-63
2021/07/06 04:07:32;;;;;;;6.35;0.60;;;23.40;57.80;;;;;;5024438;28;20403;-64
2021/07/06 04:09:58;;;;;;;4.95;0.68;;;23.40;57.70;;;;;;5038289;28;20736;-63
2021/07/06 04:12:24;;;;;;;1.73;0.70;;;23.40;57.40;;;;;;5024244;28;20537;-67
2021/07/06 04:14:49;;;;;;;1.98;0.63;;;23.40;57.30;;;;;;5022347;28;20391;-65
2021/07/06 04:17:15;;;;;;;2.33;0.40;;;23.40;57.30;;;;;;5024352;28;20476;-63
2021/07/06 04:19:41;;;;;;;1.63;0.50;;;23.40;57.30;;;;;;5023342;28;21291;-63
2021/07/06 04:22:07;;;;;;;2.37;0.60;;;23.40;57.30;;;;;;5023684;28;20411;-62
2021/07/06 04:24:33;;;;;;;0.98;0.50;;;23.40;57.30;;;;;;5023757;28;20402;-63
2021/07/06 04:26:59;;;;;;;2.38;0.50;;;23.40;57.30;;;;;;5023918;28;20907;-62
2021/07/06 04:29:26;;;;;;;2.47;0.60;;;23.40;57.30;;;;;;5023689;28;20426;-63
2021/07/06 04:31:52;;;;;;;1.25;0.43;;;23.40;57.30;;;;;;5024153;28;20474;-64
2021/07/06 04:34:18;;;;;;;2.40;0.70;;;23.40;57.30;;;;;;5023421;28;20495;-65
2021/07/06 04:36:43;;;;;;;1.50;0.50;;;23.40;57.30;;;;;;5023296;28;20954;-63
2021/07/06 04:39:09;;;;;;;2.10;0.60;;;23.40;57.30;;;;;;5023417;28;20387;-65
2021/07/06 04:41:35;;;;;;;1.77;0.57;;;23.40;57.20;;;;;;5023452;28;20391;-63
2021/07/06 04:44:00;;;;;;;0.90;0.40;;;23.40;57.20;;;;;;5023850;28;20391;-65
2021/07/06 04:46:26;;;;;;;1.77;0.60;;;23.40;57.10;;;;;;5022036;28;20454;-64
2021/07/06 04:48:52;;;;;;;1.50;0.60;;;23.40;57.10;;;;;;5023038;28;20403;-64
2021/07/06 04:51:17;;;;;;;1.10;0.40;;;23.40;57.10;;;;;;5023608;28;20619;-63
2021/07/06 04:53:44;;;;;;;0.80;0.50;;;23.40;57.40;;;;;;5023687;28;20730;-63
2021/07/06 04:56:10;;;;;;;1.17;0.40;;;23.40;57.50;;;;;;5023621;28;20383;-63
2021/07/06 04:58:37;;;;;;;0.70;0.40;;;23.40;57.50;;;;;;5023090;28;20406;-63
2021/07/06 05:01:04;;;;;;;2.72;0.55;;;23.40;57.50;;;;;;5023551;28;20387;-63
2021/07/06 05:03:32;;;;;;;2.10;0.50;;;23.40;57.50;;;;;;5021043;28;20434;-63
2021/07/06 05:05:59;;;;;;;2.30;0.60;;;23.40;57.50;;;;;;5023060;28;20520;-63
2021/07/06 05:08:24;;;;;;;1.75;0.60;;;23.40;57.40;;;;;;5022819;28;20744;-64
2021/07/06 05:10:51;;;;;;;1.58;0.60;;;23.40;57.40;;;;;;5022215;28;20387;-63
2021/07/06 05:13:17;;;;;;;1.90;0.50;;;23.40;57.40;;;;;;5022818;28;20391;-63
2021/07/06 05:15:43;;;;;;;1.60;0.50;;;23.40;57.40;;;;;;5023060;28;20406;-63
2021/07/06 05:18:09;;;;;;;1.65;0.60;;;23.40;57.40;;;;;;5022970;28;20383;-63
2021/07/06 05:20:38;;;;;;;1.52;0.52;;;23.40;58.00;;;;;;5022935;28;20438;-65
2021/07/06 05:23:03;;;;;;;1.38;0.55;;;23.40;57.50;;;;;;5022010;28;20466;-63
2021/07/06 05:25:29;;;;;;;0.90;0.40;;;23.40;57.30;;;;;;5022589;28;20550;-63
2021/07/06 05:27:55;;;;;;;1.93;0.60;;;23.40;57.20;;;;;;5023078;28;20469;-63
2021/07/06 05:30:21;;;;;;;0.85;0.47;;;23.40;57.40;;;;;;5023019;28;20438;-64
2021/07/06 05:32:47;;;;;;;1.10;0.40;;;23.40;57.20;;;;;;5022244;28;20482;-63
2021/07/06 05:35:13;;;;;;;1.63;0.60;;;23.40;57.30;;;;;;5022762;28;20410;-64
2021/07/06 05:37:39;;;;;;;1.98;0.50;;;23.40;57.70;;;;;;5022199;28;20402;-63
2021/07/06 05:40:07;;;;;;;1.10;0.50;;;23.40;57.20;;;;;;5022642;28;20388;-64
2021/07/06 05:42:34;;;;;;;2.28;0.50;;;23.40;57.40;;;;;;5023120;28;20383;-64
2021/07/06 05:45:01;;;;;;;1.25;0.40;;;23.40;57.30;;;;;;5022444;28;20422;-63
2021/07/06 05:47:27;;;;;;;0.80;0.40;;;23.40;57.20;;;;;;5022878;28;20918;-63
2021/07/06 05:49:53;;;;;;;1.27;0.45;;;23.40;57.40;;;;;;5022020;28;20498;-63
2021/07/06 05:52:18;;;;;;;1.33;0.50;;;23.40;57.30;;;;;;5022652;28;20482;-63
2021/07/06 05:54:44;;;;;;;0.83;0.50;;;23.50;57.70;;;;;;5022228;28;20784;-64
2021/07/06 05:57:10;;;;;;;0.88;0.40;;;23.50;57.60;;;;;;5022791;28;20391;-64
2021/07/06 05:59:35;;;;;;;1.20;0.40;;;23.50;57.50;;;;;;5022337;28;20400;-63
2021/07/06 06:02:01;;;;;;;0.88;0.30;;;23.50;57.60;;;;;;5022989;28;20391;-64
2021/07/06 06:04:27;;;;;;;0.80;0.50;;;23.50;57.50;;;;;;5022782;28;20756;-63
2021/07/06 06:06:54;;;;;;;1.23;0.50;;;23.50;57.50;;;;;;5022042;28;20489;-63
2021/07/06 06:09:19;;;;;;;1.10;0.40;;;23.50;57.50;;;;;;5022788;28;20414;-63
2021/07/06 06:11:45;;;;;;;1.20;0.50;;;23.50;57.20;;;;;;5022049;28;20774;-63
2021/07/06 06:14:11;;;;;;;0.70;0.40;;;23.50;57.30;;;;;;5022348;28;20398;-63
2021/07/06 06:16:36;;;;;;;1.10;0.60;;;23.50;57.00;;;;;;5038018;28;20489;-63
2021/07/06 06:19:03;;;;;;;0.82;0.50;;;23.60;57.40;;;;;;5022284;28;20424;-65
2021/07/06 06:21:32;;;;;;;0.70;0.35;;;23.50;57.30;;;;;;5022019;28;20411;-63
2021/07/06 06:23:57;;;;;;;1.23;0.60;;;23.50;57.20;;;;;;5022676;28;20435;-64
2021/07/06 06:26:23;;;;;;;0.93;0.50;;;23.60;56.90;;;;;;5022212;28;20791;-65
2021/07/06 06:28:49;;;;;;;0.97;0.50;;;23.50;57.40;;;;;;5021875;28;20387;-64
2021/07/06 06:31:16;;;;;;;1.17;0.50;;;23.50;56.90;;;;;;5022318;28;20403;-64
2021/07/06 06:33:43;;;;;;;1.90;0.50;;;23.60;57.00;;;;;;5022196;28;21017;-65
2021/07/06 06:36:10;;;;;;;0.90;0.50;;;23.60;57.30;;;;;;5022525;28;20468;-63
2021/07/06 06:38:35;;;;;;;0.95;0.50;;;23.60;57.30;;;;;;5022144;28;20390;-63
2021/07/06 06:41:01;;;;;;;0.80;0.50;;;23.60;57.50;;;;;;5021926;28;20390;-64
2021/07/06 06:43:26;;;;;;;1.45;0.60;;;23.60;57.60;;;;;;5022186;28;20394;-63
2021/07/06 06:45:52;;;;;;;0.50;0.40;;;23.60;57.50;;;;;;5022088;28;20465;-63
2021/07/06 06:48:18;;;;;;;0.90;0.50;;;23.60;57.60;;;;;;5022048;28;21330;-64
2021/07/06 06:50:44;;;;;;;0.60;0.40;;;23.60;57.70;;;;;;5020817;28;20408;-63
2021/07/06 06:53:09;;;;;;;0.80;0.40;;;23.60;57.40;;;;;;5021885;28;20747;-63
2021/07/06 06:55:35;;;;;;;0.50;0.40;;;23.60;56.70;;;;;;5022106;28;20392;-63
2021/07/06 06:58:00;;;;;;;1.10;0.60;;;23.60;57.10;;;;;;5020934;28;20399;-64
2021/07/06 07:00:28;;;;;;;1.02;0.40;;;23.60;57.30;;;;;;5022067;28;20457;-63
2021/07/06 07:02:55;;;;;;;0.80;0.38;;;23.60;57.20;;;;;;5025525;28;20383;-63
2021/07/06 07:05:20;;;;;;;0.70;0.30;;;23.60;57.20;;;;;;5025609;28;20426;-64
2021/07/06 07:07:46;;;;;;;0.73;0.40;;;23.60;57.00;;;;;;5025738;28;20386;-64
2021/07/06 07:10:12;;;;;;;0.88;0.35;;;23.60;56.70;;;;;;5025310;28;20486;-63
2021/07/06 07:12:40;;;;;;;1.02;0.50;;;23.60;57.20;;;;;;5025020;28;20415;-63
2021/07/06 07:15:10;;;;;;;0.73;0.40;;;23.60;57.20;;;;;;5025122;28;20391;-63
2021/07/06 07:17:37;;;;;;;0.50;0.38;;;23.60;57.30;;;;;;5025717;28;20480;-63
2021/07/06 07:20:05;;;;;;;0.88;0.45;;;23.60;57.20;;;;;;5025481;28;20391;-63
2021/07/06 07:22:31;;;;;;;1.58;0.50;;;23.60;57.20;;;;;;5025092;28;20446;-63
2021/07/06 07:24:57;;;;;;;1.10;0.40;;;23.60;57.50;;;;;;5024869;28;20492;-63
2021/07/06 07:27:22;;;;;;;1.00;0.47;;;23.60;57.30;;;;;;5025019;28;20752;-64
2021/07/06 07:29:48;;;;;;;1.30;0.50;;;23.60;57.80;;;;;;5025081;28;20391;-64
2021/07/06 07:32:15;;;;;;;0.77;0.52;;;23.60;57.50;;;;;;5023626;28;20411;-63
2021/07/06 07:34:42;;;;;;;0.70;0.40;;;23.60;57.60;;;;;;5024539;28;21277;-64
2021/07/06 07:37:08;;;;;;;0.57;0.40;;;23.70;57.50;;;;;;5024751;28;20937;-63
2021/07/06 07:39:33;;;;;;;0.90;0.45;;;23.70;57.60;;;;;;5024707;28;20382;-64
2021/07/06 07:42:03;;;;;;;0.80;0.38;;;23.70;57.50;;;;;;5025089;28;20486;-63
2021/07/06 07:44:29;;;;;;;0.65;0.40;;;23.70;57.60;;;;;;5024924;28;20486;-64
2021/07/06 07:46:55;;;;;;;0.75;0.30;;;23.70;57.40;;;;;;5024397;28;20502;-64
2021/07/06 07:49:20;;;;;;;0.70;0.40;;;23.70;57.30;;;;;;5024612;28;20514;-63
2021/07/06 07:51:46;;;;;;;0.57;0.30;;;23.70;57.50;;;;;;5039891;28;20395;-63
2021/07/06 07:54:12;;;;;;;0.63;0.40;;;23.70;57.60;;;;;;5024360;28;20401;-65
2021/07/06 07:56:40;;;;;;;0.75;0.40;;;23.70;57.40;;;;;;5024504;28;20399;-64
2021/07/06 07:59:06;;;;;;;0.68;0.40;;;23.70;57.40;;;;;;5024531;28;20402;-63
2021/07/06 08:01:32;;;;;;;0.65;0.40;;;23.70;57.40;;;;;;5024327;28;20391;-64
2021/07/06 08:03:57;;;;;;;1.20;0.50;;;23.60;57.50;;;;;;5024660;28;21158;-64
2021/07/06 08:06:23;;;;;;;0.80;0.45;;;23.70;57.50;;;;;;5023948;28;20958;-65
2021/07/06 08:08:49;;;;;;;0.70;0.40;;;23.70;57.50;;;;;;5023771;28;20379;-63
2021/07/06 08:11:14;;;;;;;0.60;0.40;;;23.70;57.30;;;;;;5024055;28;20931;-64
2021/07/06 08:13:40;;;;;;;0.60;0.40;;;23.70;57.50;;;;;;5023726;28;20378;-63
2021/07/06 08:16:06;;;;;;;0.80;0.40;;;23.70;57.20;;;;;;5024472;28;20403;-63
2021/07/06 08:18:32;;;;;;;1.38;0.50;;;23.70;57.40;;;;;;5024032;28;20492;-64
2021/07/06 08:20:58;;;;;;;0.60;0.30;;;23.70;57.50;;;;;;5023656;28;20415;-64
2021/07/06 08:23:24;;;;;;;0.55;0.30;;;23.70;57.30;;;;;;5023982;28;20444;-63
2021/07/06 08:25:50;;;;;;;0.60;0.40;;;23.70;57.50;;;;;;5024213;28;20423;-63
2021/07/06 08:28:15;;;;;;;0.70;0.30;;;23.70;57.60;;;;;;5023994;28;20387;-64
2021/07/06 08:30:43;;;;;;;0.60;0.30;;;23.70;57.30;;;;;;5022951;28;20422;-64
2021/07/06 08:33:08;;;;;;;0.90;0.50;;;23.70;57.30;;;;;;5023773;28;20447;-63
2021/07/06 08:35:34;;;;;;;0.93;0.40;;;23.70;57.50;;;;;;5023804;28;20423;-63
2021/07/06 08:38:00;;;;;;;0.70;0.40;;;23.70;57.30;;;;;;5023479;28;20399;-63
2021/07/06 08:40:26;;;;;;;0.90;0.50;;;23.70;57.60;;;;;;5023687;28;20405;-64
2021/07/06 08:42:55;;;;;;;1.85;0.40;;;23.70;57.20;;;;;;5023345;28;20472;-63
2021/07/06 08:45:21;;;;;;;0.57;0.30;;;23.70;57.50;;;;;;5023624;28;20403;-63
2021/07/06 08:47:51;;;;;;;0.50;0.30;;;23.70;57.20;;;;;;5023692;28;20879;-63
2021/07/06 08:50:17;;;;;;;0.85;0.30;;;23.70;57.30;;;;;;5023737;28;20422;-64
2021/07/06 08:52:45;;;;;;;0.70;0.40;;;23.70;57.30;;;;;;5023355;28;20417;-63
2021/07/06 08:55:13;;;;;;;0.90;0.40;;;23.70;57.40;;;;;;5022939;28;20386;-65
2021/07/06 08:57:40;;;;;;;0.93;0.40;;;23.70;57.30;;;;;;5023593;28;20759;-63
2021/07/06 09:00:07;;;;;;;0.60;0.30;;;23.70;57.30;;;;;;5022535;28;21121;-63
2021/07/06 09:02:33;;;;;;;0.47;0.20;;;23.70;57.50;;;;;;5023433;28;20445;-63
2021/07/06 09:04:59;;;;;;;0.80;0.43;;;23.70;57.40;;;;;;5022645;28;20427;-64
2021/07/06 09:07:41;;;;;;;0.50;0.27;;;23.70;57.30;;;;;;5023721;28;20809;-63
2021/07/06 09:10:11;;;;;;;1.10;0.30;;;23.70;57.20;;;;;;5023304;28;20384;-64
2021/07/06 09:12:37;;;;;;;0.50;0.28;;;23.70;57.30;;;;;;5023202;28;20398;-63
2021/07/06 09:15:24;;;;;;;0.90;0.40;;;23.70;57.30;;;;;;5022861;28;20391;-63
2021/07/06 09:18:09;;;;;;;0.43;0.30;;;23.70;57.40;;;;;;5022909;28;20391;-64
2021/07/06 09:20:37;;;;;;;0.80;0.40;;;23.70;57.50;;;;;;5022744;28;20901;-64
2021/07/06 09:23:23;;;;;;;1.10;0.40;;;23.70;57.50;;;;;;5022721;28;20907;-63
2021/07/06 09:26:09;;;;;;;1.00;0.40;;;23.70;57.70;;;;;;5021278;28;20465;-63
2021/07/06 09:28:37;;;;;;;0.70;0.40;;;23.70;57.60;;;;;;5022810;28;20452;-64
2021/07/06 09:31:26;;;;;;;0.57;0.30;;;23.70;57.60;;;;;;5022592;28;20393;-63
2021/07/06 09:34:01;;;;;;;1.10;0.43;;;23.70;57.60;;;;;;5022957;28;20395;-64
2021/07/06 09:36:47;;;;;;;0.60;0.32;;;23.70;57.80;;;;;;5022002;28;20875;-66
2021/07/06 09:39:22;;;;;;;0.70;0.30;;;23.70;57.70;;;;;;5037572;28;20411;-64
2021/07/06 09:42:08;;;;;;;0.60;0.33;;;23.70;57.70;;;;;;5023090;28;20394;-63
2021/07/06 09:44:35;;;;;;;1.30;0.40;;;23.70;57.60;;;;;;5022700;28;20387;-63
2021/07/06 09:47:08;;;;;;;0.80;0.40;;;23.70;57.60;;;;;;5021816;28;20576;-63
2021/07/06 09:49:43;;;;;;;1.15;0.35;;;23.70;57.60;;;;;;5022953;28;20387;-64
2021/07/06 09:52:16;;;;;;;0.60;0.30;;;23.70;57.60;;;;;;5022420;28;20479;-64
2021/07/06 09:54:47;;;;;;;0.70;0.30;;;23.70;57.50;;;;;;5022571;28;20387;-63
2021/07/06 09:57:28;;;;;;;1.15;0.40;;;23.70;57.60;;;;;;5021730;28;21048;-63
2021/07/06 10:00:09;;;;;;;0.90;0.40;;;23.70;57.70;;;;;;5023051;28;20379;-64
2021/07/06 10:02:35;;;;;;;1.42;0.40;;;23.70;57.70;;;;;;5022685;28;20751;-63
2021/07/06 10:05:07;;;;;;;0.63;0.40;;;23.70;57.50;;;;;;5022106;28;20415;-63
2021/07/06 10:07:35;;;;;;;1.30;0.50;;;23.70;57.80;;;;;;5022765;28;20458;-64
2021/07/06 10:10:06;;;;;;;1.30;0.40;;;23.70;57.60;;;;;;5022761;28;20790;-63
2021/07/06 10:12:31;;;;;;;1.33;0.50;;;23.70;57.60;;;;;;5022959;28;20426;-64
2021/07/06 10:14:57;;;;;;;1.00;0.50;;;23.70;57.60;;;;;;5021738;28;20391;-64
2021/07/06 10:17:23;;;;;;;0.93;0.40;;;23.70;57.70;;;;;;5022771;28;20402;-64
2021/07/06 10:19:49;;;;;;;1.02;0.40;;;23.70;57.60;;;;;;5021998;28;20437;-64
2021/07/06 10:22:16;;;;;;;0.85;0.40;;;23.70;57.60;;;;;;5022421;28;20472;-63
2021/07/06 10:24:47;;;;;;;0.70;0.40;;;23.70;57.70;;;;;;5022130;28;20891;-63
2021/07/06 10:27:26;;;;;;;0.87;0.47;;;23.70;57.60;;;;;;5022190;28;20403;-63
2021/07/06 10:30:15;;;;;;;0.80;0.50;;;23.70;57.70;;;;;;5021092;28;20448;-65
2021/07/06 10:32:50;;;;;;;1.17;0.37;;;23.70;57.70;;;;;;5022381;28;20488;-63
2021/07/06 10:35:37;;;;;;;0.90;0.50;;;23.70;57.60;;;;;;5022209;28;20383;-63
2021/07/06 10:38:28;;;;;;;0.70;0.40;;;23.70;57.70;;;;;;5026290;28;20728;-63
2021/07/06 10:40:54;;;;;;;0.90;0.40;;;23.70;57.80;;;;;;5025493;28;20434;-63
2021/07/06 10:43:30;;;;;;;0.82;0.43;;;23.70;57.70;;;;;;5025973;28;20477;-63
2021/07/06 10:45:57;;;;;;;1.05;0.50;;;23.70;57.70;;;;;;5026197;28;20422;-63
2021/07/06 10:48:42;;;;;;;0.57;0.30;;;23.70;58.30;;;;;;5024534;28;20853;-63
2021/07/06 10:51:09;;;;;;;1.00;0.50;;;23.70;57.80;;;;;;5025250;28;20487;-63
2021/07/06 10:53:35;;;;;;;1.23;0.60;;;23.60;57.80;;;;;;5025025;28;20844;-63
2021/07/06 10:56:04;;;;;;;1.30;0.60;;;23.70;57.80;;;;;;5025440;28;20505;-63
2021/07/06 10:58:58;;;;;;;0.50;0.30;;;23.70;58.00;;;;;;5025745;28;20398;-64
2021/07/06 11:01:36;;;;;;;1.20;0.40;;;23.70;57.80;;;;;;5025555;28;20430;-64
2021/07/06 11:04:06;;;;;;;1.70;0.50;;;23.70;57.90;;;;;;5025229;28;20407;-64
2021/07/06 11:06:43;;;;;;;0.80;0.45;;;23.70;57.80;;;;;;5025564;28;20423;-63
2021/07/06 11:09:09;;;;;;;0.73;0.35;;;23.70;57.90;;;;;;5025130;28;20456;-64
2021/07/06 11:11:36;;;;;;;0.50;0.30;;;23.70;57.90;;;;;;5025552;28;20387;-63
2021/07/06 11:14:20;;;;;;;0.80;0.40;;;23.70;57.80;;;;;;5025200;28;20410;-64
2021/07/06 11:16:56;;;;;;;0.80;0.40;;;23.70;57.80;;;;;;5025514;28;20483;-63
2021/07/06 11:19:36;;;;;;;1.08;0.40;;;23.70;57.90;;;;;;5025171;28;20430;-63
2021/07/06 11:22:11;;;;;;;0.68;0.38;;;23.70;57.80;;;;;;5025191;28;20411;-64
2021/07/06 11:24:48;;;;;;;0.90;0.40;;;23.70;57.90;;;;;;5025128;28;20407;-64
2021/07/06 11:27:35;;;;;;;1.15;0.40;;;23.70;57.90;;;;;;5024952;28;20402;-64
2021/07/06 11:30:27;;;;;;;2.05;0.57;;;23.70;57.90;;;;;;5025131;28;20387;-63
2021/07/06 11:33:19;;;;;;;0.80;0.40;;;23.70;57.90;;;;;;5025200;28;20455;-64
2021/07/06 11:35:46;;;;;;;1.98;0.40;;;23.70;57.80;;;;;;5022535;28;20426;-65
2021/07/06 11:38:15;;;;;;;0.75;0.40;;;23.70;57.90;;;;;;5025396;28;20398;-64
2021/07/06 11:40:43;;;;;;;1.05;0.40;;;23.70;57.90;;;;;;5025250;28;20480;-63
2021/07/06 11:43:10;;;;;;;0.50;0.30;;;23.70;58.00;;;;;;5024930;28;20691;-64
2021/07/06 11:45:37;;;;;;;1.20;0.40;;;23.70;58.10;;;;;;5024684;28;20411;-64
2021/07/06 11:48:09;;;;;;;0.70;0.30;;;23.70;58.00;;;;;;5022745;28;20382;-64
2021/07/06 11:50:35;;;;;;;1.00;0.57;;;23.80;58.10;;;;;;5024666;28;20882;-64
2021/07/06 11:53:02;;;;;;;1.98;0.40;;;23.70;58.00;;;;;;5024562;28;20438;-63
2021/07/06 11:55:30;;;;;;;0.40;0.30;;;23.80;58.10;;;;;;5024241;28;20932;-63
2021/07/06 11:57:56;;;;;;;0.80;0.30;;;23.80;58.10;;;;;;5023298;28;20404;-63
2021/07/06 12:00:23;;;;;;;0.80;0.40;;;23.80;58.00;;;;;;5024685;28;20835;-63
2021/07/06 12:03:22;;;;;;;0.68;0.30;;;23.80;58.00;;;;;;5024547;28;20395;-64
2021/07/06 12:05:51;;;;;;;1.40;0.50;;;23.80;57.90;;;;;;5024309;28;20589;-63
2021/07/06 12:08:21;;;;;;;1.20;0.50;;;23.80;57.90;;;;;;5024055;28;20391;-64
2021/07/06 12:11:09;;;;;;;1.27;0.50;;;23.80;57.80;;;;;;5039650;28;20427;-64
2021/07/06 12:13:41;;;;;;;1.20;0.43;;;23.80;57.90;;;;;;5024265;28;20942;-65
2021/07/06 12:16:14;;;;;;;0.70;0.40;;;23.80;57.90;;;;;;5024459;28;20442;-64
2021/07/06 12:18:59;;;;;;;1.70;0.45;;;23.80;57.90;;;;;;5024425;28;20429;-63
2021/07/06 12:21:40;;;;;;;0.80;0.40;;;23.90;58.20;;;;;;5038266;28;20418;-64
2021/07/06 12:24:08;;;;;;;0.93;0.60;;;23.90;57.90;;;;;;5024115;28;20398;-64
2021/07/06 12:26:37;;;;;;;0.65;0.30;;;23.90;57.80;;;;;;5023726;28;20423;-63
2021/07/06 12:29:03;;;;;;;1.20;0.30;;;23.90;57.80;;;;;;5023607;28;20391;-64
2021/07/06 12:31:36;;;;;;;1.20;0.40;;;23.90;57.70;;;;;;5023436;28;20973;-63
2021/07/06 12:34:14;;;;;;;1.60;0.40;;;23.90;58.00;;;;;;5023553;28;20419;-64
2021/07/06 12:36:41;;;;;;;1.08;0.30;;;23.90;58.10;;;;;;5023600;28;20391;-65
2021/07/06 12:39:16;;;;;;;1.80;0.47;;;23.90;58.60;;;;;;5023714;28;20387;-63
2021/07/06 12:41:59;;;;;;;1.48;0.55;;;24.00;58.70;;;;;;5023734;28;20389;-63
2021/07/06 12:44:31;;;;;;;2.33;0.60;;;24.10;58.80;;;;;;5023888;28;20391;-64
2021/07/06 12:47:10;;;;;;;1.27;0.40;;;24.00;58.60;;;;;;5023315;28;20423;-64
2021/07/06 12:49:36;;;;;;;1.02;0.50;;;24.10;58.70;;;;;;5023796;28;20384;-63
2021/07/06 12:52:03;;;;;;;1.55;0.50;;;24.10;58.50;;;;;;5023003;28;20391;-63
2021/07/06 12:54:34;;;;;;;1.50;0.40;;;24.10;58.70;;;;;;5023567;28;20527;-64
2021/07/06 12:57:01;;;;;;;0.80;0.50;;;24.10;58.70;;;;;;5022972;28;20431;-67